createdAt,value
2022-10-17T00:01:11.054Z,99063.00
2022-10-17T00:03:39.343Z,99061.00
2022-10-17T00:06:09.434Z,99062.00
2022-10-17T00:08:37.630Z,99065.00
2022-10-17T00:11:07.220Z,99060.00
2022-10-17T00:13:35.597Z,99065.00
2022-10-17T00:16:03.755Z,99067.00
2022-10-17T00:18:31.862Z,99071.00
2022-10-17T00:20:59.959Z,99072.00
2022-10-17T00:23:30.543Z,99077.00
2022-10-17T00:25:59.882Z,99077.00
2022-10-17T00:28:28.060Z,99080.00
2022-10-17T00:30:59.519Z,99079.00
2022-10-17T00:33:27.758Z,99083.00
2022-10-17T00:36:04.199Z,99076.00
2022-10-17T00:38:33.912Z,99085.00
2022-10-17T00:41:02.112Z,99076.00
2022-10-17T00:43:30.819Z,99076.00
2022-10-17T00:45:59.035Z,99068.00
2022-10-17T00:48:27.214Z,99080.00
2022-10-17T00:50:55.413Z,99080.00
2022-10-17T00:53:23.529Z,99082.00
2022-10-17T00:55:53.874Z,99083.00
2022-10-17T00:58:22.014Z,99088.00
2022-10-17T01:00:50.145Z,99083.00
2022-10-17T01:03:18.272Z,99083.00
2022-10-17T01:05:46.444Z,99093.00
2022-10-17T01:08:14.572Z,99081.00
2022-10-17T01:10:49.269Z,99079.00
2022-10-17T01:13:20.850Z,99083.00
2022-10-17T01:15:54.716Z,99087.00
2022-10-17T01:18:30.493Z,99080.00
2022-10-17T01:21:08.109Z,99093.00
2022-10-17T01:24:11.672Z,99091.00
2022-10-17T01:26:53.752Z,99104.00
2022-10-17T01:29:34.880Z,99087.00
2022-10-17T01:32:05.326Z,99084.00
2022-10-17T01:34:36.051Z,99086.00
2022-10-17T01:37:05.335Z,99083.00
2022-10-17T01:39:38.697Z,99085.00
2022-10-17T01:42:11.571Z,99087.00
2022-10-17T01:44:42.089Z,99072.00
2022-10-17T01:47:12.349Z,99092.00
2022-10-17T01:49:41.231Z,99104.00
2022-10-17T01:52:11.782Z,99089.00
2022-10-17T01:54:41.399Z,99089.00
2022-10-17T01:57:11.665Z,99088.00
2022-10-17T01:59:41.230Z,99094.00
2022-10-17T02:02:09.365Z,99091.00
2022-10-17T02:04:38.860Z,99100.00
2022-10-17T02:07:09.858Z,99099.00
2022-10-17T02:09:37.962Z,99091.00
2022-10-17T02:12:17.443Z,99099.00
2022-10-17T02:14:52.006Z,99084.00
2022-10-17T02:17:22.236Z,99092.00
2022-10-17T02:19:56.487Z,99090.00
2022-10-17T02:22:29.029Z,99089.00
2022-10-17T02:25:03.443Z,99088.00
2022-10-17T02:27:36.434Z,99086.00
2022-10-17T02:30:07.553Z,99083.00
2022-10-17T02:32:36.585Z,99088.00
2022-10-17T02:35:06.961Z,99083.00
2022-10-17T02:37:35.065Z,99091.00
2022-10-17T02:40:03.171Z,99086.00
2022-10-17T02:42:31.577Z,99091.00
2022-10-17T02:45:00.348Z,99091.00
2022-10-17T02:47:29.333Z,99086.00
2022-10-17T02:49:58.520Z,99088.00
2022-10-17T02:52:31.081Z,99090.00
2022-10-17T02:55:00.880Z,99090.00
2022-10-17T02:57:30.305Z,99089.00
2022-10-17T02:59:59.057Z,99090.00
2022-10-17T03:02:27.617Z,99094.00
2022-10-17T03:04:56.464Z,99095.00
2022-10-17T03:07:24.580Z,99103.00
2022-10-17T03:09:54.091Z,99103.00
2022-10-17T03:12:22.230Z,99098.00
2022-10-17T03:14:50.381Z,99101.00
2022-10-17T03:17:18.485Z,99101.00
2022-10-17T03:19:46.762Z,99097.00
2022-10-17T03:22:14.924Z,99104.00
2022-10-17T03:24:43.040Z,99104.00
2022-10-17T03:27:12.693Z,99099.00
2022-10-17T03:29:40.807Z,99107.00
2022-10-17T03:32:09.022Z,99109.00
2022-10-17T03:34:37.211Z,99115.00
2022-10-17T03:37:05.346Z,99121.00
2022-10-17T03:39:33.514Z,99125.00
2022-10-17T03:42:01.643Z,99119.00
2022-10-17T03:44:31.151Z,99126.00
2022-10-17T03:46:59.256Z,99129.00
2022-10-17T03:49:27.386Z,99128.00
2022-10-17T03:51:55.520Z,99120.00
2022-10-17T03:54:23.623Z,99133.00
2022-10-17T03:56:51.839Z,99134.00
2022-10-17T03:59:19.980Z,99132.00
2022-10-17T04:01:49.472Z,99134.00
2022-10-17T04:04:17.625Z,99141.00
2022-10-17T04:06:45.763Z,99146.00
2022-10-17T04:09:13.892Z,99145.00
2022-10-17T04:11:42.054Z,99156.00
2022-10-17T04:14:10.745Z,99152.00
2022-10-17T04:16:39.594Z,99152.00
2022-10-17T04:19:09.106Z,99158.00
2022-10-17T04:21:37.221Z,99162.00
2022-10-17T04:24:05.756Z,99160.00
2022-10-17T04:26:33.879Z,99155.00
2022-10-17T04:29:01.999Z,99163.00
2022-10-17T04:31:30.135Z,99156.00
2022-10-17T04:33:58.264Z,99162.00
2022-10-17T04:36:27.767Z,99164.00
2022-10-17T04:38:55.893Z,99162.00
2022-10-17T04:41:24.071Z,99160.00
2022-10-17T04:43:52.179Z,99164.00
2022-10-17T04:46:20.303Z,99151.00
2022-10-17T04:48:48.434Z,99166.00
2022-10-17T04:51:19.648Z,99155.00
2022-10-17T04:53:51.443Z,99156.00
2022-10-17T04:56:20.768Z,99160.00
2022-10-17T04:58:48.913Z,99168.00
2022-10-17T05:01:18.004Z,99177.00
2022-10-17T05:03:46.213Z,99168.00
2022-10-17T05:06:15.009Z,99169.00
2022-10-17T05:08:43.407Z,99170.00
2022-10-17T05:11:20.606Z,99167.00
2022-10-17T05:13:51.307Z,99168.00
2022-10-17T05:16:19.456Z,99174.00
2022-10-17T05:18:52.696Z,99173.00
2022-10-17T05:21:21.556Z,99179.00
2022-10-17T05:23:49.714Z,99184.00
2022-10-17T05:26:19.302Z,99181.00
2022-10-17T05:28:47.487Z,99186.00
2022-10-17T05:31:15.675Z,99188.00
2022-10-17T05:33:44.216Z,99197.00
2022-10-17T05:36:12.387Z,99196.00
2022-10-17T05:38:40.512Z,99192.00
2022-10-17T05:41:09.141Z,99192.00
2022-10-17T05:43:38.648Z,99195.00
2022-10-17T05:46:07.030Z,99209.00
2022-10-17T05:48:35.145Z,99206.00
2022-10-17T05:51:04.303Z,99206.00
2022-10-17T05:53:32.740Z,99207.00
2022-10-17T05:56:01.565Z,99212.00
2022-10-17T05:58:49.128Z,99208.00
2022-10-17T06:01:19.483Z,99218.00
2022-10-17T06:03:47.644Z,99214.00
2022-10-17T06:06:16.009Z,99217.00
2022-10-17T06:08:44.251Z,99212.00
2022-10-17T06:11:12.663Z,99211.00
2022-10-17T06:13:40.921Z,99215.00
2022-10-17T06:16:09.180Z,99218.00
2022-10-17T06:18:38.714Z,99222.00
2022-10-17T06:21:07.890Z,99229.00
2022-10-17T06:23:36.058Z,99223.00
2022-10-17T06:26:05.258Z,99215.00
2022-10-17T06:28:33.516Z,99224.00
2022-10-17T06:31:04.856Z,99216.00
2022-10-17T06:33:32.975Z,99224.00
2022-10-17T06:36:02.641Z,99238.00
2022-10-17T06:38:31.078Z,99238.00
2022-10-17T06:41:04.967Z,99235.00
2022-10-17T06:43:33.070Z,99237.00
2022-10-17T06:46:01.167Z,99235.00
2022-10-17T06:51:06.106Z,99246.00
2022-10-17T06:53:35.195Z,99251.00
2022-10-17T06:56:04.055Z,99254.00
2022-10-17T06:58:32.625Z,99256.00
2022-10-17T07:01:01.363Z,99249.00
2022-10-17T07:03:29.734Z,99244.00
2022-10-17T07:05:57.974Z,99245.00
2022-10-17T07:08:27.539Z,99249.00
2022-10-17T07:10:56.003Z,99257.00
2022-10-17T07:13:24.266Z,99264.00
2022-10-17T07:15:52.543Z,99269.00
2022-10-17T07:18:20.713Z,99277.00
2022-10-17T07:20:54.284Z,99284.00
2022-10-17T07:23:22.464Z,99284.00
2022-10-17T07:25:51.932Z,99278.00
2022-10-17T07:28:20.089Z,99277.00
2022-10-17T07:30:51.994Z,99274.00
2022-10-17T07:33:22.622Z,99274.00
2022-10-17T07:35:52.625Z,99275.00
2022-10-17T07:38:20.768Z,99279.00
2022-10-17T07:40:56.651Z,99289.00
2022-10-17T07:43:24.874Z,99289.00
2022-10-17T07:45:53.024Z,99292.00
2022-10-17T07:48:21.260Z,99284.00
2022-10-17T07:50:49.437Z,99280.00
2022-10-17T07:53:17.552Z,99296.00
2022-10-17T07:55:46.490Z,99294.00
2022-10-17T07:58:16.910Z,99292.00
2022-10-17T08:00:48.528Z,99287.00
2022-10-17T08:03:17.123Z,99284.00
2022-10-17T08:05:45.815Z,99287.00
2022-10-17T08:08:14.201Z,99281.00
2022-10-17T08:10:42.432Z,99278.00
2022-10-17T08:13:11.117Z,99280.00
2022-10-17T08:15:40.809Z,99280.00
2022-10-17T08:18:09.539Z,99287.00
2022-10-17T08:20:38.477Z,99289.00
2022-10-17T08:23:06.727Z,99286.00
2022-10-17T08:25:34.986Z,99282.00
2022-10-17T08:28:03.548Z,99290.00
2022-10-17T08:30:31.796Z,99276.00
2022-10-17T08:33:01.450Z,99279.00
2022-10-17T08:35:29.615Z,99275.00
2022-10-17T08:38:01.562Z,99283.00
2022-10-17T08:40:33.703Z,99283.00
2022-10-17T08:43:11.460Z,99285.00
2022-10-17T08:45:41.905Z,99282.00
2022-10-17T08:48:13.694Z,99286.00
2022-10-17T08:50:43.871Z,99272.00
2022-10-17T08:53:14.720Z,99281.00
2022-10-17T08:55:45.846Z,99279.00
2022-10-17T08:58:15.535Z,99278.00
2022-10-17T09:00:46.490Z,99272.00
2022-10-17T09:03:23.693Z,99264.00
2022-10-17T09:05:52.593Z,99272.00
2022-10-17T09:08:26.417Z,99280.00
2022-10-17T09:10:58.596Z,99275.00
2022-10-17T09:13:33.990Z,99287.00
2022-10-17T09:16:09.423Z,99278.00
2022-10-17T09:18:40.262Z,99277.00
2022-10-17T09:21:15.548Z,99274.00
2022-10-17T09:23:45.263Z,99281.00
2022-10-17T09:26:13.404Z,99273.00
2022-10-17T09:28:42.291Z,99272.00
2022-10-17T09:31:13.786Z,99269.00
2022-10-17T09:33:58.958Z,99275.00
2022-10-17T09:36:29.153Z,99270.00
2022-10-17T09:38:59.892Z,99273.00
2022-10-17T09:41:47.338Z,99266.00
2022-10-17T09:44:18.254Z,99259.00
2022-10-17T09:46:53.480Z,99261.00
2022-10-17T09:49:24.869Z,99265.00
2022-10-17T09:51:53.002Z,99262.00
2022-10-17T09:54:23.078Z,99256.00
2022-10-17T09:57:01.831Z,99258.00
2022-10-17T09:59:33.835Z,99268.00
2022-10-17T10:02:19.510Z,99262.00
2022-10-17T10:05:04.111Z,99256.00
2022-10-17T10:07:33.838Z,99253.00
2022-10-17T10:10:02.978Z,99255.00
2022-10-17T10:12:32.618Z,99251.00
2022-10-17T10:15:01.054Z,99246.00
2022-10-17T10:17:35.847Z,99254.00
2022-10-17T10:20:26.750Z,99264.00
2022-10-17T10:23:08.719Z,99260.00
2022-10-17T10:25:36.934Z,99253.00
2022-10-17T10:28:11.205Z,99250.00
2022-10-17T10:30:40.077Z,99244.00
2022-10-17T10:33:11.928Z,99252.00
2022-10-17T10:35:41.905Z,99255.00
2022-10-17T10:38:11.347Z,99248.00
2022-10-17T10:40:40.451Z,99242.00
2022-10-17T10:43:08.866Z,99243.00
2022-10-17T10:45:48.045Z,99238.00
2022-10-17T10:48:21.644Z,99234.00
2022-10-17T10:50:53.087Z,99235.00
2022-10-17T10:53:35.345Z,99218.00
2022-10-17T10:56:07.439Z,99238.00
2022-10-17T10:58:42.100Z,99241.00
2022-10-17T11:01:15.899Z,99240.00
2022-10-17T11:03:55.881Z,99242.00
2022-10-17T11:06:26.781Z,99244.00
2022-10-17T11:09:03.109Z,99235.00
2022-10-17T11:11:33.643Z,99240.00
2022-10-17T11:14:03.104Z,99237.00
2022-10-17T11:16:34.238Z,99246.00
2022-10-17T11:19:06.360Z,99230.00
2022-10-17T11:24:11.928Z,99235.00
2022-10-17T11:26:44.054Z,99230.00
2022-10-17T11:29:12.154Z,99237.00
2022-10-17T11:31:41.260Z,99231.00
2022-10-17T11:34:11.713Z,99229.00
2022-10-17T11:36:42.762Z,99223.00
2022-10-17T11:39:13.548Z,99229.00
2022-10-17T11:41:44.260Z,99221.00
2022-10-17T11:44:16.985Z,99224.00
2022-10-17T11:46:45.216Z,99216.00
2022-10-17T11:49:19.855Z,99222.00
2022-10-17T11:52:00.827Z,99210.00
2022-10-17T11:54:32.564Z,99205.00
2022-10-17T11:57:19.916Z,99198.00
2022-10-17T11:59:58.573Z,99214.00
2022-10-17T12:02:32.294Z,99196.00
2022-10-17T12:05:05.178Z,99197.00
2022-10-17T12:07:39.244Z,99193.00
2022-10-17T12:10:15.748Z,99180.00
2022-10-17T12:12:43.882Z,99178.00
2022-10-17T12:15:31.449Z,99185.00
2022-10-17T12:18:02.441Z,99180.00
2022-10-17T12:20:37.058Z,99178.00
2022-10-17T12:23:23.181Z,99181.00
2022-10-17T12:25:54.235Z,99178.00
2022-10-17T12:28:28.024Z,99178.00
2022-10-17T12:30:58.184Z,99188.00
2022-10-17T12:33:32.942Z,99187.00
2022-10-17T12:36:47.099Z,99193.00
2022-10-17T12:39:49.718Z,99206.00
2022-10-17T12:42:51.275Z,99206.00
2022-10-17T12:45:51.496Z,99208.00
2022-10-17T12:48:52.528Z,99199.00
2022-10-17T12:51:35.326Z,99194.00
2022-10-17T12:54:11.989Z,99200.00
2022-10-17T12:56:42.660Z,99206.00
2022-10-17T12:59:15.498Z,99212.00
2022-10-17T13:01:46.303Z,99208.00
2022-10-17T13:04:14.610Z,99205.00
2022-10-17T13:06:46.489Z,99215.00
2022-10-17T13:09:20.905Z,99209.00
2022-10-17T13:11:50.393Z,99215.00
2022-10-17T13:14:19.957Z,99220.00
2022-10-17T13:16:52.586Z,99218.00
2022-10-17T13:19:23.371Z,99218.00
2022-10-17T13:21:53.418Z,99209.00
2022-10-17T13:24:22.821Z,99216.00
2022-10-17T13:26:52.802Z,99209.00
2022-10-17T13:29:22.034Z,99215.00
2022-10-17T13:31:53.399Z,99220.00
2022-10-17T13:34:22.783Z,99223.00
2022-10-17T13:36:53.024Z,99216.00
2022-10-17T13:39:32.682Z,99214.00
2022-10-17T13:42:08.173Z,99216.00
2022-10-17T13:44:37.789Z,99209.00
2022-10-17T13:47:20.918Z,99214.00
2022-10-17T13:49:51.569Z,99202.00
2022-10-17T13:52:23.425Z,99202.00
2022-10-17T13:54:52.112Z,99204.00
2022-10-17T13:57:22.624Z,99218.00
2022-10-17T13:59:51.856Z,99217.00
2022-10-17T14:02:26.833Z,99219.00
2022-10-17T14:05:18.943Z,99223.00
2022-10-17T14:08:10.883Z,99230.00
2022-10-17T14:10:40.887Z,99226.00
2022-10-17T14:13:23.393Z,99227.00
2022-10-17T14:15:51.705Z,99236.00
2022-10-17T14:18:20.875Z,99234.00
2022-10-17T14:21:29.205Z,99236.00
2022-10-17T14:23:38.358Z,99228.00
2022-10-17T14:26:12.145Z,99233.00
2022-10-17T14:28:42.155Z,99238.00
2022-10-17T14:31:19.715Z,99240.00
2022-10-17T14:33:50.703Z,99242.00
2022-10-17T14:36:19.414Z,99231.00
2022-10-17T14:38:47.720Z,99232.00
2022-10-17T14:44:09.001Z,99246.00
2022-10-17T14:46:37.176Z,99250.00
2022-10-17T14:49:07.104Z,99250.00
2022-10-17T14:51:44.994Z,99252.00
2022-10-17T14:54:24.997Z,99252.00
2022-10-17T14:56:54.324Z,99252.00
2022-10-17T14:59:52.023Z,99249.00
2022-10-17T15:02:13.951Z,99255.00
2022-10-17T15:04:42.116Z,99259.00
2022-10-17T15:07:14.157Z,99267.00
2022-10-17T15:09:42.552Z,99260.00
2022-10-17T15:12:14.951Z,99261.00
2022-10-17T15:14:44.460Z,99255.00
2022-10-17T15:17:16.923Z,99249.00
2022-10-17T15:19:45.174Z,99261.00
2022-10-17T15:22:13.299Z,99256.00
2022-10-17T15:24:41.413Z,99265.00
2022-10-17T15:27:15.053Z,99259.00
2022-10-17T15:29:44.585Z,99262.00
2022-10-17T15:32:12.878Z,99273.00
2022-10-17T15:34:41.096Z,99273.00
2022-10-17T15:37:16.279Z,99266.00
2022-10-17T15:39:45.295Z,99274.00
2022-10-17T15:42:13.441Z,99268.00
2022-10-17T15:44:44.302Z,99264.00
2022-10-17T15:47:16.804Z,99263.00
2022-10-17T15:49:44.912Z,99266.00
2022-10-17T15:52:13.055Z,99264.00
2022-10-17T15:54:41.221Z,99262.00
2022-10-17T15:57:10.340Z,99257.00
2022-10-17T15:59:38.592Z,99266.00
2022-10-17T16:02:11.577Z,99273.00
2022-10-17T16:04:41.055Z,99275.00
2022-10-17T16:07:09.181Z,99264.00
2022-10-17T16:09:37.914Z,99282.00
2022-10-17T16:12:06.868Z,99265.00
2022-10-17T16:14:35.012Z,99284.00
2022-10-17T16:17:03.202Z,99263.00
2022-10-17T16:19:31.361Z,99286.00
2022-10-17T16:22:04.442Z,99272.00
2022-10-17T16:24:32.889Z,99275.00
2022-10-17T16:27:02.046Z,99281.00
2022-10-17T16:29:30.348Z,99283.00
2022-10-17T16:31:58.575Z,99277.00
2022-10-17T16:34:26.761Z,99288.00
2022-10-17T16:36:54.928Z,99295.00
2022-10-17T16:39:24.563Z,99288.00
2022-10-17T16:41:54.891Z,99281.00
2022-10-17T16:44:25.885Z,99295.00
2022-10-17T16:46:54.333Z,99298.00
2022-10-17T16:49:22.701Z,99290.00
2022-10-17T16:51:50.858Z,99299.00
2022-10-17T16:54:19.604Z,99308.00
2022-10-17T16:56:50.414Z,99309.00
2022-10-17T16:59:18.589Z,99305.00
2022-10-17T17:01:46.752Z,99315.00
2022-10-17T17:04:14.929Z,99316.00
2022-10-17T17:09:11.620Z,99315.00
2022-10-17T17:11:39.914Z,99322.00
2022-10-17T17:14:10.349Z,99325.00
2022-10-17T17:16:38.491Z,99330.00
2022-10-17T17:19:07.735Z,99331.00
2022-10-17T17:21:36.328Z,99336.00
2022-10-17T17:24:04.929Z,99339.00
2022-10-17T17:26:35.869Z,99348.00
2022-10-17T17:29:04.816Z,99335.00
2022-10-17T17:31:35.190Z,99344.00
2022-10-17T17:34:03.764Z,99358.00
2022-10-17T17:36:33.864Z,99350.00
2022-10-17T17:39:04.060Z,99352.00
2022-10-17T17:41:32.205Z,99364.00
2022-10-17T17:44:00.362Z,99352.00
2022-10-17T17:46:28.550Z,99361.00
2022-10-17T17:48:58.102Z,99361.00
2022-10-17T17:51:29.304Z,99359.00
2022-10-17T17:53:57.901Z,99364.00
2022-10-17T17:56:26.636Z,99362.00
2022-10-17T17:58:55.661Z,99366.00
2022-10-17T18:01:24.669Z,99382.00
2022-10-17T18:03:53.441Z,99372.00
2022-10-17T18:06:23.345Z,99371.00
2022-10-17T18:08:52.931Z,99380.00
2022-10-17T18:11:22.215Z,99383.00
2022-10-17T18:13:55.400Z,99377.00
2022-10-17T18:16:23.870Z,99375.00
2022-10-17T18:18:52.212Z,99386.00
2022-10-17T18:21:20.530Z,99383.00
2022-10-17T18:23:50.371Z,99389.00
2022-10-17T18:26:18.883Z,99394.00
2022-10-17T18:28:47.250Z,99383.00
2022-10-17T18:31:18.979Z,99381.00
2022-10-17T18:33:47.600Z,99390.00
2022-10-17T18:36:16.643Z,99401.00
2022-10-17T18:38:44.981Z,99392.00
2022-10-17T18:41:15.263Z,99409.00
2022-10-17T18:43:44.560Z,99389.00
2022-10-17T18:46:14.888Z,99398.00
2022-10-17T18:48:45.485Z,99399.00
2022-10-17T18:51:14.053Z,99412.00
2022-10-17T18:53:42.629Z,99403.00
2022-10-17T18:56:11.115Z,99406.00
2022-10-17T18:58:41.481Z,99404.00
2022-10-17T19:01:15.791Z,99404.00
2022-10-17T19:03:44.124Z,99400.00
2022-10-17T19:06:13.285Z,99402.00
2022-10-17T19:08:41.814Z,99412.00
2022-10-17T19:13:38.033Z,99408.00
2022-10-17T19:16:11.771Z,99418.00
2022-10-17T19:18:39.941Z,99415.00
2022-10-17T19:21:09.342Z,99419.00
2022-10-17T19:23:37.879Z,99420.00
2022-10-17T19:26:06.730Z,99425.00
2022-10-17T19:28:35.148Z,99414.00
2022-10-17T19:31:03.490Z,99417.00
2022-10-17T19:33:33.903Z,99416.00
2022-10-17T19:36:02.874Z,99421.00
2022-10-17T19:38:31.094Z,99406.00
2022-10-17T19:43:28.473Z,99420.00
2022-10-17T19:45:57.015Z,99420.00
2022-10-17T19:48:25.365Z,99403.00
2022-10-17T19:50:55.153Z,99429.00
2022-10-17T19:53:24.100Z,99428.00
2022-10-17T19:55:52.311Z,99439.00
2022-10-17T19:58:21.148Z,99427.00
2022-10-17T20:00:49.465Z,99430.00
2022-10-17T20:03:17.675Z,99438.00
2022-10-17T20:05:46.259Z,99438.00
2022-10-17T20:08:17.406Z,99438.00
2022-10-17T20:10:46.159Z,99437.00
2022-10-17T20:13:14.461Z,99448.00
2022-10-17T20:15:42.634Z,99442.00
2022-10-17T20:18:10.847Z,99442.00
2022-10-17T20:20:39.011Z,99447.00
2022-10-17T20:23:07.180Z,99445.00
2022-10-17T20:25:38.270Z,99446.00
2022-10-17T20:28:06.413Z,99444.00
2022-10-17T20:30:34.602Z,99447.00
2022-10-17T20:33:02.754Z,99451.00
2022-10-17T20:35:30.899Z,99448.00
2022-10-17T20:37:59.040Z,99457.00
2022-10-17T20:40:35.081Z,99453.00
2022-10-17T20:43:05.400Z,99455.00
2022-10-17T20:45:50.381Z,99466.00
2022-10-17T20:48:19.759Z,99461.00
2022-10-17T20:50:48.351Z,99471.00
2022-10-17T20:53:36.589Z,99467.00
2022-10-17T20:56:05.233Z,99473.00
2022-10-17T20:58:34.799Z,99461.00
2022-10-17T21:01:07.266Z,99473.00
2022-10-17T21:03:38.739Z,99479.00
2022-10-17T21:06:10.040Z,99479.00
2022-10-17T21:08:38.260Z,99480.00
2022-10-17T21:11:10.847Z,99484.00
2022-10-17T21:13:40.558Z,99484.00
2022-10-17T21:16:09.708Z,99479.00
2022-10-17T21:18:38.400Z,99477.00
2022-10-17T21:21:10.882Z,99485.00
2022-10-17T21:23:39.657Z,99478.00
2022-10-17T21:26:09.449Z,99471.00
2022-10-17T21:28:37.854Z,99468.00
2022-10-17T21:31:15.198Z,99472.00
2022-10-17T21:33:44.827Z,99474.00
2022-10-17T21:36:13.605Z,99466.00
2022-10-17T21:38:41.952Z,99468.00
2022-10-17T21:41:10.388Z,99456.00
2022-10-17T21:43:38.731Z,99468.00
2022-10-17T21:46:07.576Z,99460.00
2022-10-17T21:48:37.062Z,99464.00
2022-10-17T21:51:06.366Z,99471.00
2022-10-17T21:53:34.707Z,99468.00
2022-10-17T21:56:03.814Z,99471.00
2022-10-17T21:58:32.463Z,99471.00
2022-10-17T22:01:07.282Z,99464.00
2022-10-17T22:03:37.190Z,99470.00
2022-10-17T22:06:34.575Z,99462.00
2022-10-17T22:08:53.889Z,99469.00
2022-10-17T22:11:23.466Z,99458.00
2022-10-17T22:13:54.711Z,99470.00
2022-10-17T22:16:22.910Z,99473.00
2022-10-17T22:18:52.526Z,99472.00
2022-10-17T22:21:21.833Z,99470.00
2022-10-17T22:23:56.518Z,99467.00
2022-10-17T22:26:24.717Z,99451.00
2022-10-17T22:28:53.364Z,99452.00
2022-10-17T22:31:21.576Z,99462.00
2022-10-17T22:33:49.734Z,99454.00
2022-10-17T22:36:19.289Z,99458.00
2022-10-17T22:38:47.455Z,99447.00
2022-10-17T22:41:15.627Z,99464.00
2022-10-17T22:43:43.788Z,99455.00
2022-10-17T22:46:13.074Z,99450.00
2022-10-17T22:48:41.370Z,99459.00
2022-10-17T22:51:09.659Z,99463.00
2022-10-17T22:53:39.309Z,99463.00
2022-10-17T22:56:08.833Z,99452.00
2022-10-17T22:58:37.062Z,99458.00
2022-10-17T23:01:05.654Z,99449.00
2022-10-17T23:03:34.123Z,99440.00
2022-10-17T23:06:02.544Z,99440.00
2022-10-17T23:08:30.700Z,99437.00
2022-10-17T23:11:00.365Z,99438.00
2022-10-17T23:13:28.514Z,99437.00
2022-10-17T23:15:57.450Z,99443.00
2022-10-17T23:18:26.039Z,99435.00
2022-10-17T23:20:54.390Z,99441.00
2022-10-17T23:23:23.159Z,99425.00
2022-10-17T23:25:51.596Z,99434.00
2022-10-17T23:28:21.196Z,99437.00
2022-10-17T23:30:49.369Z,99440.00
2022-10-17T23:33:17.508Z,99434.00
2022-10-17T23:35:45.681Z,99431.00
2022-10-17T23:38:13.836Z,99431.00
2022-10-17T23:40:42.130Z,99428.00
2022-10-17T23:43:10.282Z,99426.00
2022-10-17T23:48:08.040Z,99440.00
2022-10-17T23:50:36.398Z,99444.00
2022-10-17T23:53:04.720Z,99444.00
2022-10-17T23:55:32.936Z,99439.00
2022-10-17T23:58:01.147Z,99431.00
